createdAt,value
2016-08-31T00:00:04.664Z,61.02
2016-08-31T00:01:04.640Z,61.02
2016-08-31T00:02:04.619Z,60.93
2016-08-31T00:03:04.596Z,61.02
2016-08-31T00:04:04.573Z,60.73
2016-08-31T00:05:04.550Z,60.93
2016-08-31T00:06:04.528Z,61.4
2016-08-31T00:07:04.506Z,61.4
2016-08-31T00:08:04.483Z,61.21
2016-08-31T00:09:04.460Z,61.21
2016-08-31T00:10:05.128Z,61.02
2016-08-31T00:11:04.417Z,60.83
2016-08-31T00:12:04.391Z,61.31
2016-08-31T00:13:04.369Z,61.5
2016-08-31T00:14:04.349Z,61.21
2016-08-31T00:15:04.327Z,61.69
2016-08-31T00:16:04.303Z,61.6
2016-08-31T00:17:04.281Z,61.79
2016-08-31T00:18:04.256Z,61.6
2016-08-31T00:19:04.236Z,61.6
2016-08-31T00:20:04.213Z,61.5
2016-08-31T00:21:04.190Z,61.69
2016-08-31T00:22:04.169Z,61.69
2016-08-31T00:23:04.144Z,61.94
2016-08-31T00:24:04.122Z,61.66
2016-08-31T00:25:04.359Z,62.14
2016-08-31T00:26:04.077Z,62.33
2016-08-31T00:27:04.054Z,62.43
2016-08-31T00:28:04.033Z,62.55
2016-08-31T00:29:04.010Z,62.14
2016-08-31T00:30:03.988Z,62.52
2016-08-31T00:31:03.963Z,62.33
2016-08-31T00:32:03.942Z,62.23
2016-08-31T00:33:03.917Z,62.52
2016-08-31T00:34:03.895Z,62.43
2016-08-31T00:35:03.874Z,62.9
2016-08-31T00:36:03.853Z,63.19
2016-08-31T00:37:03.829Z,63
2016-08-31T00:38:03.807Z,63
2016-08-31T00:39:03.784Z,62.81
2016-08-31T00:40:03.762Z,63.1
2016-08-31T00:41:03.738Z,63.19
2016-08-31T00:42:03.715Z,63
2016-08-31T00:43:03.693Z,63.48
2016-08-31T00:44:03.668Z,63.57
2016-08-31T00:45:03.647Z,63.19
2016-08-31T00:46:03.623Z,63.39
2016-08-31T00:47:03.600Z,63.39
2016-08-31T00:48:03.579Z,63.39
2016-08-31T00:49:03.556Z,63.57
2016-08-31T00:50:04.048Z,63.29
2016-08-31T00:51:04.205Z,63.29
2016-08-31T00:52:03.485Z,63.19
2016-08-31T00:53:03.464Z,63.1
2016-08-31T00:54:03.440Z,63.64
2016-08-31T00:55:03.417Z,63.64
2016-08-31T00:56:03.395Z,63.48
2016-08-31T00:57:03.372Z,63.35
2016-08-31T00:58:03.348Z,64.02
2016-08-31T00:59:03.327Z,63.73
2016-08-31T01:00:03.303Z,63.93
2016-08-31T01:01:03.281Z,63.64
2016-08-31T01:02:03.259Z,63.64
2016-08-31T01:03:03.234Z,63.45
2016-08-31T01:04:03.261Z,63.64
2016-08-31T01:05:03.196Z,63.83
2016-08-31T01:06:03.165Z,64.12
2016-08-31T01:07:03.142Z,63.73
2016-08-31T01:08:03.118Z,64.02
2016-08-31T01:09:03.097Z,64.22
2016-08-31T01:10:03.073Z,64.02
2016-08-31T01:11:03.049Z,64.22
2016-08-31T01:12:03.026Z,63.93
2016-08-31T01:13:03.002Z,64.22
2016-08-31T01:14:02.981Z,64.4
2016-08-31T01:15:02.956Z,64.59
2016-08-31T01:16:02.933Z,64.79
2016-08-31T01:17:02.912Z,64.98
2016-08-31T01:18:02.891Z,64.88
2016-08-31T01:19:02.866Z,64.69
2016-08-31T01:20:02.894Z,64.5
2016-08-31T01:21:02.819Z,64.88
2016-08-31T01:22:02.798Z,64.69
2016-08-31T01:23:02.774Z,65.17
2016-08-31T01:24:02.751Z,65.26
2016-08-31T01:25:02.727Z,64.88
2016-08-31T01:26:02.705Z,65.45
2016-08-31T01:27:02.682Z,65.65
2016-08-31T01:28:02.657Z,65.55
2016-08-31T01:29:02.633Z,65.81
2016-08-31T01:30:02.612Z,65.61
2016-08-31T01:31:02.589Z,65.9
2016-08-31T01:32:02.565Z,65.9
2016-08-31T01:33:02.542Z,66.32
2016-08-31T01:34:02.518Z,66.38
2016-08-31T01:35:02.502Z,66.57
2016-08-31T01:36:02.471Z,66.09
2016-08-31T01:37:02.450Z,66.57
2016-08-31T01:38:02.425Z,66.67
2016-08-31T01:39:02.403Z,66.47
2016-08-31T01:40:02.379Z,66.47
2016-08-31T01:41:02.354Z,66.57
2016-08-31T01:42:02.331Z,66.67
2016-08-31T01:43:02.308Z,66.67
2016-08-31T01:44:02.285Z,66.38
2016-08-31T01:45:02.262Z,66.47
2016-08-31T01:46:02.239Z,67.14
2016-08-31T01:47:02.213Z,67.14
2016-08-31T01:48:02.199Z,66.96
2016-08-31T01:49:02.174Z,66.67
2016-08-31T01:50:02.144Z,66.96
2016-08-31T01:51:02.122Z,66.67
2016-08-31T01:52:02.097Z,66.57
2016-08-31T01:53:02.074Z,67.34
2016-08-31T01:54:02.049Z,66.67
2016-08-31T01:55:02.026Z,66.86
2016-08-31T01:56:02.003Z,66.76
2016-08-31T01:57:01.979Z,67.14
2016-08-31T01:58:01.956Z,67.05
2016-08-31T01:59:01.938Z,66.96
2016-08-31T02:00:01.907Z,67.05
2016-08-31T02:01:01.885Z,67.14
2016-08-31T02:02:01.858Z,67.14
2016-08-31T02:03:01.836Z,67.69
2016-08-31T02:04:01.814Z,67.53
2016-08-31T02:05:01.791Z,67.4
2016-08-31T02:06:01.768Z,67.49
2016-08-31T02:07:01.743Z,67.4
2016-08-31T02:08:01.719Z,67.4
2016-08-31T02:09:01.731Z,67.3
2016-08-31T02:10:02.867Z,67.49
2016-08-31T02:11:01.648Z,67.78
2016-08-31T02:12:01.625Z,68.07
2016-08-31T02:13:01.602Z,68.16
2016-08-31T02:14:01.579Z,68.16
2016-08-31T02:15:01.554Z,68.16
2016-08-31T02:16:01.528Z,68.07
2016-08-31T02:17:01.506Z,67.78
2016-08-31T02:18:01.481Z,68.16
2016-08-31T02:19:01.457Z,68.26
2016-08-31T02:20:01.436Z,68.07
2016-08-31T02:21:01.412Z,68.16
2016-08-31T02:22:01.388Z,68.55
2016-08-31T02:23:01.364Z,68.16
2016-08-31T02:24:01.338Z,68.35
2016-08-31T02:25:01.316Z,68.45
2016-08-31T02:26:01.292Z,68.55
2016-08-31T02:27:01.266Z,68.35
2016-08-31T02:28:01.246Z,68.64
2016-08-31T02:29:01.222Z,68.74
2016-08-31T02:30:01.199Z,69.02
2016-08-31T02:31:01.171Z,68.55
2016-08-31T02:32:01.148Z,68.64
2016-08-31T02:33:01.126Z,68.84
2016-08-31T02:34:01.107Z,68.64
2016-08-31T02:35:01.078Z,68.35
2016-08-31T02:36:01.055Z,68.45
2016-08-31T02:37:01.028Z,68.64
2016-08-31T02:38:01.005Z,68.64
2016-08-31T02:39:00.980Z,68.55
2016-08-31T02:40:00.957Z,68.93
2016-08-31T02:41:00.934Z,69.12
2016-08-31T02:42:00.921Z,69.31
2016-08-31T02:43:00.886Z,68.84
2016-08-31T02:44:00.868Z,69.31
2016-08-31T02:45:00.837Z,69.02
2016-08-31T02:46:00.813Z,68.99
2016-08-31T02:47:00.791Z,69.12
2016-08-31T02:48:00.764Z,68.99
2016-08-31T02:49:00.741Z,69.09
2016-08-31T02:50:00.718Z,68.99
2016-08-31T02:51:00.694Z,68.99
2016-08-31T02:52:00.670Z,69.09
2016-08-31T02:53:00.647Z,69.09
2016-08-31T02:54:00.622Z,68.9
2016-08-31T02:55:00.597Z,69.09
2016-08-31T02:56:00.573Z,69.09
2016-08-31T02:57:00.550Z,69.18
2016-08-31T02:58:00.526Z,68.9
2016-08-31T02:59:00.503Z,68.99
2016-08-31T03:00:00.478Z,69.27
2016-08-31T03:01:00.453Z,69.18
2016-08-31T03:02:00.431Z,68.99
2016-08-31T03:03:00.406Z,69.09
2016-08-31T03:04:00.379Z,68.99
2016-08-31T03:05:00.358Z,69.47
2016-08-31T03:06:00.332Z,69.56
2016-08-31T03:07:00.308Z,69.56
2016-08-31T03:08:00.285Z,69.66
2016-08-31T03:09:00.260Z,69.47
2016-08-31T03:10:00.244Z,69.47
2016-08-31T03:11:00.214Z,69.27
2016-08-31T03:12:00.189Z,69.37
2016-08-31T03:13:00.167Z,70.04
2016-08-31T03:14:00.148Z,69.95
2016-08-31T03:15:00.114Z,69.85
2016-08-31T03:16:00.094Z,69.76
2016-08-31T03:17:00.073Z,69.95
2016-08-31T03:18:00.048Z,69.85
2016-08-31T03:19:00.025Z,70.14
2016-08-31T03:19:59.994Z,70.04
2016-08-31T03:20:59.970Z,70.33
2016-08-31T03:21:59.947Z,70.04
2016-08-31T03:22:59.925Z,70.61
2016-08-31T03:23:59.899Z,70.23
2016-08-31T03:24:59.877Z,70.14
2016-08-31T03:25:59.850Z,70.42
2016-08-31T03:26:59.826Z,70.04
2016-08-31T03:27:59.802Z,70.33
2016-08-31T03:28:59.778Z,70.23
2016-08-31T03:29:59.757Z,69.95
2016-08-31T03:30:59.728Z,70.33
2016-08-31T03:31:59.705Z,70.14
2016-08-31T03:32:59.681Z,70.23
2016-08-31T03:33:59.657Z,70.61
2016-08-31T03:34:59.630Z,70.52
2016-08-31T03:35:59.607Z,70.52
2016-08-31T03:36:59.582Z,70.81
2016-08-31T03:37:59.558Z,70.71
2016-08-31T03:38:59.535Z,70.61
2016-08-31T03:39:59.516Z,70.71
2016-08-31T03:40:59.485Z,70.81
2016-08-31T03:41:59.462Z,70.71
2016-08-31T03:42:59.437Z,70.61
2016-08-31T03:43:59.413Z,70.61
2016-08-31T03:44:59.389Z,70.04
2016-08-31T03:45:59.366Z,70.23
2016-08-31T03:46:59.341Z,70.14
2016-08-31T03:47:59.315Z,70.33
2016-08-31T03:48:59.290Z,70.81
2016-08-31T03:49:59.267Z,70.71
2016-08-31T03:50:59.243Z,70.71
2016-08-31T03:51:59.217Z,70.61
2016-08-31T03:52:59.194Z,70.61
2016-08-31T03:53:59.171Z,70.23
2016-08-31T03:54:59.144Z,70.71
2016-08-31T03:55:59.122Z,70.81
2016-08-31T03:56:59.096Z,70.81
2016-08-31T03:57:59.071Z,70.81
2016-08-31T03:58:59.048Z,70.81
2016-08-31T03:59:59.025Z,70.81
2016-08-31T04:00:58.999Z,71
2016-08-31T04:01:58.976Z,70.81
2016-08-31T04:02:58.950Z,70.61
2016-08-31T04:03:58.925Z,70.81
2016-08-31T04:04:58.902Z,70.61
2016-08-31T04:05:58.878Z,70.71
2016-08-31T04:06:58.852Z,70.9
2016-08-31T04:07:58.831Z,70.81
2016-08-31T04:08:58.806Z,71
2016-08-31T04:09:58.781Z,71.09
2016-08-31T04:10:58.763Z,71.28
2016-08-31T04:11:58.731Z,71
2016-08-31T04:12:58.707Z,71.09
2016-08-31T04:13:58.692Z,70.9
2016-08-31T04:14:58.657Z,71.09
2016-08-31T04:15:58.634Z,71.09
2016-08-31T04:16:58.610Z,70.9
2016-08-31T04:17:58.584Z,71.09
2016-08-31T04:18:58.562Z,70.9
2016-08-31T04:19:58.535Z,71
2016-08-31T04:20:58.510Z,71.09
2016-08-31T04:21:58.488Z,71.28
2016-08-31T04:22:58.465Z,71.28
2016-08-31T04:23:58.444Z,71
2016-08-31T04:24:58.416Z,71
2016-08-31T04:25:58.450Z,71.09
2016-08-31T04:26:58.365Z,71.19
2016-08-31T04:27:58.341Z,71.19
2016-08-31T04:28:58.318Z,70.9
2016-08-31T04:29:58.293Z,71.19
2016-08-31T04:30:58.270Z,71.09
2016-08-31T04:31:58.251Z,71.19
2016-08-31T04:32:58.222Z,71.28
2016-08-31T04:33:58.197Z,70.81
2016-08-31T04:34:58.171Z,71.28
2016-08-31T04:35:58.147Z,71.19
2016-08-31T04:36:58.123Z,71.28
2016-08-31T04:37:58.097Z,71.19
2016-08-31T04:38:58.074Z,71.09
2016-08-31T04:39:58.050Z,71.28
2016-08-31T04:40:58.034Z,71.19
2016-08-31T04:41:58.002Z,71.38
2016-08-31T04:42:57.978Z,71.28
2016-08-31T04:43:57.958Z,71.09
2016-08-31T04:44:57.929Z,70.81
2016-08-31T04:45:57.905Z,71.28
2016-08-31T04:46:57.878Z,71.28
2016-08-31T04:47:57.857Z,71.28
2016-08-31T04:48:57.832Z,71.28
2016-08-31T04:49:57.812Z,70.81
2016-08-31T04:50:57.782Z,71
2016-08-31T04:51:57.760Z,70.9
2016-08-31T04:52:57.732Z,71.09
2016-08-31T04:53:57.710Z,70.81
2016-08-31T04:54:57.686Z,71.09
2016-08-31T04:55:57.661Z,70.9
2016-08-31T04:56:57.638Z,71.28
2016-08-31T04:57:57.614Z,71.09
2016-08-31T04:58:57.588Z,71.28
2016-08-31T04:59:57.566Z,71.19
2016-08-31T05:00:57.541Z,71
2016-08-31T05:01:57.516Z,71.19
2016-08-31T05:02:57.493Z,71.19
2016-08-31T05:03:57.469Z,71.19
2016-08-31T05:04:57.445Z,71.09
2016-08-31T05:05:57.421Z,71.09
2016-08-31T05:06:57.396Z,71
2016-08-31T05:07:57.372Z,71
2016-08-31T05:08:57.348Z,71.28
2016-08-31T05:09:57.322Z,70.9
2016-08-31T05:10:57.300Z,70.81
2016-08-31T05:11:57.276Z,70.61
2016-08-31T05:12:57.250Z,71
2016-08-31T05:13:57.228Z,71.09
2016-08-31T05:14:57.203Z,70.9
2016-08-31T05:15:57.178Z,70.71
2016-08-31T05:16:57.156Z,70.52
2016-08-31T05:17:57.133Z,70.81
2016-08-31T05:18:57.105Z,70.52
2016-08-31T05:19:57.091Z,70.65
2016-08-31T05:20:57.060Z,70.46
2016-08-31T05:21:57.034Z,70.46
2016-08-31T05:22:57.013Z,70.36
2016-08-31T05:23:56.986Z,70.17
2016-08-31T05:24:56.962Z,70.27
2016-08-31T05:25:56.939Z,70.27
2016-08-31T05:26:56.914Z,70.07
2016-08-31T05:27:56.897Z,70.07
2016-08-31T05:28:56.870Z,69.98
2016-08-31T05:29:56.853Z,69.6
2016-08-31T05:30:56.820Z,69.89
2016-08-31T05:31:56.798Z,69.79
2016-08-31T05:32:56.774Z,69.79
2016-08-31T05:33:56.750Z,69.79
2016-08-31T05:34:56.727Z,70.27
2016-08-31T05:35:56.702Z,70.07
2016-08-31T05:36:56.679Z,69.89
2016-08-31T05:37:56.654Z,70.27
2016-08-31T05:38:56.631Z,69.31
2016-08-31T05:39:56.609Z,69.31
2016-08-31T05:40:56.584Z,69.5
2016-08-31T05:41:56.560Z,69.6
2016-08-31T05:42:56.537Z,69.7
2016-08-31T05:43:56.513Z,69.21
2016-08-31T05:44:56.488Z,69.31
2016-08-31T05:45:56.483Z,68.93
2016-08-31T05:46:56.446Z,69.21
2016-08-31T05:47:56.416Z,69.31
2016-08-31T05:48:56.396Z,68.93
2016-08-31T05:49:56.373Z,68.64
2016-08-31T05:50:56.350Z,68.84
2016-08-31T05:51:56.326Z,68.84
2016-08-31T05:52:56.303Z,68.74
2016-08-31T05:53:56.279Z,68.45
2016-08-31T05:54:56.257Z,68.45
2016-08-31T05:55:56.231Z,68.1
2016-08-31T05:56:56.208Z,68.39
2016-08-31T05:57:56.185Z,68.49
2016-08-31T05:58:56.158Z,68.1
2016-08-31T05:59:56.139Z,68.01
2016-08-31T06:00:56.117Z,67.63
2016-08-31T06:01:56.092Z,67.43
2016-08-31T06:02:56.067Z,67.53
2016-08-31T06:03:56.045Z,67.43
2016-08-31T06:04:56.021Z,67.53
2016-08-31T06:05:56.024Z,67.53
2016-08-31T06:06:55.976Z,66.96
2016-08-31T06:07:56.651Z,66.96
2016-08-31T06:08:55.928Z,66.96
2016-08-31T06:09:55.908Z,66.96
2016-08-31T06:10:55.882Z,66.86
2016-08-31T06:11:55.859Z,66.96
2016-08-31T06:12:55.837Z,67.05
2016-08-31T06:13:55.814Z,66.57
2016-08-31T06:14:55.795Z,66.61
2016-08-31T06:15:55.768Z,66.41
2016-08-31T06:16:55.747Z,66.7
2016-08-31T06:17:55.723Z,66.03
2016-08-31T06:18:55.700Z,66.13
2016-08-31T06:19:55.680Z,65.84
2016-08-31T06:20:55.655Z,65.65
2016-08-31T06:21:56.332Z,65.94
2016-08-31T06:22:55.611Z,65.45
2016-08-31T06:23:55.589Z,65.55
2016-08-31T06:24:55.563Z,65.65
2016-08-31T06:25:55.543Z,65.17
2016-08-31T06:26:55.526Z,65.26
2016-08-31T06:27:55.497Z,65.11
2016-08-31T06:28:55.482Z,64.92
2016-08-31T06:29:55.453Z,64.92
2016-08-31T06:30:55.430Z,64.82
2016-08-31T06:31:55.412Z,65.11
2016-08-31T06:32:55.385Z,64.82
2016-08-31T06:33:55.363Z,64.53
2016-08-31T06:34:55.341Z,63.86
2016-08-31T06:35:55.317Z,64.15
2016-08-31T06:36:55.297Z,63.89
2016-08-31T06:37:55.275Z,63.96
2016-08-31T06:38:55.256Z,63.51
2016-08-31T06:39:55.234Z,63.7
2016-08-31T06:40:56.057Z,63.8
2016-08-31T06:41:55.186Z,63.6
2016-08-31T06:42:55.166Z,63.7
2016-08-31T06:43:55.145Z,63.6
2016-08-31T06:44:55.122Z,63.03
2016-08-31T06:45:55.102Z,63.22
2016-08-31T06:46:55.092Z,63.51
2016-08-31T06:47:55.056Z,63.13
2016-08-31T06:48:55.036Z,62.96
2016-08-31T06:49:55.013Z,63.35
2016-08-31T06:50:54.991Z,62.59
2016-08-31T06:51:54.984Z,62.49
2016-08-31T06:52:54.950Z,62.68
2016-08-31T06:53:54.927Z,62.2
2016-08-31T06:54:54.907Z,62.49
2016-08-31T06:55:54.884Z,61.82
2016-08-31T06:56:54.864Z,61.63
2016-08-31T06:57:54.841Z,61.85
2016-08-31T06:58:54.819Z,61.34
2016-08-31T06:59:54.799Z,61.08
2016-08-31T07:00:54.787Z,61.27
2016-08-31T07:01:54.755Z,60.89
2016-08-31T07:02:54.736Z,60.7
2016-08-31T07:03:54.714Z,60.79
2016-08-31T07:04:54.692Z,60.5
2016-08-31T07:05:54.673Z,60.5
2016-08-31T07:06:54.652Z,60.35
2016-08-31T07:07:54.630Z,60.05
2016-08-31T07:08:55.306Z,60.44
2016-08-31T07:09:55.292Z,59.58
2016-08-31T07:10:54.572Z,59.48
2016-08-31T07:11:54.547Z,59.22
2016-08-31T07:12:54.527Z,59.12
2016-08-31T07:13:54.506Z,58.26
2016-08-31T07:14:54.489Z,57.97
2016-08-31T07:15:54.493Z,57.62
2016-08-31T07:16:54.451Z,57.04
2016-08-31T07:17:54.434Z,56.85
2016-08-31T07:18:54.412Z,56.18
2016-08-31T07:19:54.395Z,55.82
2016-08-31T07:20:54.377Z,55.24
2016-08-31T07:21:54.361Z,55.08
2016-08-31T07:22:54.341Z,54.12
2016-08-31T07:23:55.138Z,54.12
2016-08-31T07:24:54.311Z,53.38
2016-08-31T07:25:54.290Z,53.19
2016-08-31T07:26:54.273Z,52.22
2016-08-31T07:27:54.257Z,52.25
2016-08-31T07:28:54.241Z,51.76
2016-08-31T07:29:54.224Z,51.76
2016-08-31T07:30:54.209Z,51.57
2016-08-31T07:31:54.206Z,50.81
2016-08-31T07:32:54.174Z,51.19
2016-08-31T07:33:54.158Z,51.12
2016-08-31T07:34:54.142Z,50.25
2016-08-31T07:35:54.125Z,50.54
2016-08-31T07:36:54.109Z,50.35
2016-08-31T07:37:54.092Z,49.68
2016-08-31T07:38:54.082Z,49.22
2016-08-31T07:39:54.060Z,49.22
2016-08-31T07:40:54.045Z,49.22
2016-08-31T07:41:54.029Z,48.93
2016-08-31T07:42:54.012Z,48.83
2016-08-31T07:43:53.998Z,47.97
2016-08-31T07:44:53.986Z,48.18
2016-08-31T07:45:53.964Z,48.08
2016-08-31T07:46:53.949Z,48.18
2016-08-31T07:47:53.934Z,47.31
2016-08-31T07:48:53.920Z,47.7
2016-08-31T07:49:53.903Z,47.03
2016-08-31T07:50:53.886Z,47.6
2016-08-31T07:51:53.867Z,46.55
2016-08-31T07:52:53.854Z,46.64
2016-08-31T07:53:53.833Z,46.35
2016-08-31T07:54:53.817Z,46.45
2016-08-31T07:55:53.799Z,46.06
2016-08-31T07:56:53.784Z,46.35
2016-08-31T07:57:53.767Z,46.18
2016-08-31T07:58:53.748Z,45.89
2016-08-31T07:59:53.733Z,45.6
2016-08-31T08:00:53.715Z,45.7
2016-08-31T08:01:53.699Z,45.6
2016-08-31T08:02:54.410Z,45.51
2016-08-31T08:03:53.666Z,45.41
2016-08-31T08:04:53.649Z,45.41
2016-08-31T08:05:53.640Z,44.93
2016-08-31T08:06:53.614Z,45.03
2016-08-31T08:07:53.599Z,45.03
2016-08-31T08:08:53.605Z,45.41
2016-08-31T08:09:53.572Z,44.93
2016-08-31T08:10:53.546Z,44.45
2016-08-31T08:11:53.527Z,44.45
2016-08-31T08:12:53.511Z,44.15
2016-08-31T08:13:53.494Z,44.54
2016-08-31T08:14:53.482Z,44.25
2016-08-31T08:15:53.460Z,44.15
2016-08-31T08:16:53.443Z,44.06
2016-08-31T08:17:53.425Z,43.6
2016-08-31T08:18:53.409Z,43.7
2016-08-31T08:19:53.392Z,43.98
2016-08-31T08:20:53.375Z,43.6
2016-08-31T08:21:53.367Z,43.31
2016-08-31T08:22:53.339Z,43.41
2016-08-31T08:23:54.183Z,43.41
2016-08-31T08:24:53.307Z,43.12
2016-08-31T08:25:53.427Z,42.93
2016-08-31T08:26:53.271Z,42.73
2016-08-31T08:27:53.262Z,43.02
2016-08-31T08:28:53.239Z,42.73
2016-08-31T08:29:53.221Z,42.93
2016-08-31T08:30:53.206Z,42.94
2016-08-31T08:31:53.189Z,42.56
2016-08-31T08:32:53.174Z,42.66
2016-08-31T08:33:53.156Z,42.54
2016-08-31T08:34:53.137Z,42.36
2016-08-31T08:35:53.127Z,42.46
2016-08-31T08:36:53.104Z,42.27
2016-08-31T08:37:53.087Z,42.27
2016-08-31T08:38:53.071Z,42.46
2016-08-31T08:39:53.052Z,42.46
2016-08-31T08:40:53.038Z,42.36
2016-08-31T08:41:53.021Z,42.18
2016-08-31T08:42:53.002Z,42.08
2016-08-31T08:43:53.159Z,41.98
2016-08-31T08:44:52.970Z,41.88
2016-08-31T08:45:52.955Z,41.98
2016-08-31T08:46:52.938Z,41.91
2016-08-31T08:47:52.919Z,42
2016-08-31T08:48:52.904Z,41.81
2016-08-31T08:49:52.888Z,41.88
2016-08-31T08:50:52.871Z,42.1
2016-08-31T08:51:52.853Z,42.1
2016-08-31T08:52:52.838Z,42.19
2016-08-31T08:53:52.822Z,41.81
2016-08-31T08:54:52.803Z,41.91
2016-08-31T08:55:52.789Z,41.91
2016-08-31T08:56:52.771Z,41.42
2016-08-31T08:57:52.753Z,41.33
2016-08-31T08:58:52.739Z,41.23
2016-08-31T08:59:52.722Z,40.96
2016-08-31T09:00:52.706Z,40.96
2016-08-31T09:01:52.689Z,40.86
2016-08-31T09:02:52.673Z,40.96
2016-08-31T09:03:52.658Z,40.09
2016-08-31T09:04:52.641Z,40.38
2016-08-31T09:05:52.626Z,40.77
2016-08-31T09:06:52.623Z,40.28
2016-08-31T09:07:52.594Z,39.9
2016-08-31T09:08:52.577Z,39.9
2016-08-31T09:09:52.559Z,40.09
2016-08-31T09:10:52.546Z,40.09
2016-08-31T09:11:52.529Z,40.09
2016-08-31T09:12:52.513Z,39.9
2016-08-31T09:13:52.496Z,39.9
2016-08-31T09:14:52.480Z,39.9
2016-08-31T09:15:52.464Z,39.43
2016-08-31T09:16:52.449Z,39.53
2016-08-31T09:17:52.439Z,39.62
2016-08-31T09:18:52.418Z,39.92
2016-08-31T09:19:52.401Z,39.53
2016-08-31T09:20:52.384Z,39.34
2016-08-31T09:21:52.371Z,39.43
2016-08-31T09:22:52.354Z,39.14
2016-08-31T09:23:52.352Z,38.87
2016-08-31T09:24:52.329Z,39.04
2016-08-31T09:25:52.309Z,39.06
2016-08-31T09:26:52.292Z,38.87
2016-08-31T09:27:52.375Z,38.97
2016-08-31T09:28:52.260Z,39.06
2016-08-31T09:29:52.245Z,39.16
2016-08-31T09:30:52.229Z,39.26
2016-08-31T09:31:52.215Z,38.87
2016-08-31T09:32:52.197Z,38.78
2016-08-31T09:33:52.187Z,38.7
2016-08-31T09:34:52.166Z,38.6
2016-08-31T09:35:52.151Z,38.5
2016-08-31T09:36:52.137Z,38.6
2016-08-31T09:37:52.118Z,38.5
2016-08-31T09:38:52.112Z,38.5
2016-08-31T09:39:52.092Z,38.41
2016-08-31T09:40:52.080Z,38.31
2016-08-31T09:41:52.059Z,38.21
2016-08-31T09:42:52.043Z,37.92
2016-08-31T09:43:52.029Z,37.82
2016-08-31T09:44:52.012Z,38.02
2016-08-31T09:45:52.010Z,37.63
2016-08-31T09:46:51.983Z,37.73
2016-08-31T09:47:51.968Z,37.82
2016-08-31T09:48:51.952Z,37.63
2016-08-31T09:49:51.936Z,37.44
2016-08-31T09:50:51.982Z,37.54
2016-08-31T09:51:51.908Z,37.46
2016-08-31T09:52:51.892Z,37.26
2016-08-31T09:53:51.876Z,37.07
2016-08-31T09:54:51.861Z,37.07
2016-08-31T09:55:51.847Z,36.98
2016-08-31T09:56:51.830Z,36.78
2016-08-31T09:57:51.817Z,36.78
2016-08-31T09:58:51.802Z,36.7
2016-08-31T09:59:51.784Z,36.58
2016-08-31T10:00:51.771Z,36.7
2016-08-31T10:01:51.754Z,36.41
2016-08-31T10:02:51.742Z,36.41
2016-08-31T10:03:51.726Z,36.41
2016-08-31T10:04:51.712Z,36.32
2016-08-31T10:05:51.697Z,36.41
2016-08-31T10:06:51.681Z,36.22
2016-08-31T10:07:51.673Z,36.32
2016-08-31T10:08:51.651Z,36.22
2016-08-31T10:09:51.642Z,36.32
2016-08-31T10:10:51.624Z,36.41
2016-08-31T10:11:51.606Z,36.41
2016-08-31T10:12:51.595Z,35.93
2016-08-31T10:13:51.579Z,35.85
2016-08-31T10:14:51.570Z,35.94
2016-08-31T10:15:51.549Z,35.85
2016-08-31T10:16:51.535Z,35.75
2016-08-31T10:17:51.520Z,35.75
2016-08-31T10:18:51.506Z,35.46
2016-08-31T10:19:51.497Z,35.46
2016-08-31T10:20:51.477Z,35.36
2016-08-31T10:21:51.467Z,35.27
2016-08-31T10:22:51.447Z,35.19
2016-08-31T10:23:52.127Z,34.99
2016-08-31T10:24:51.419Z,34.99
2016-08-31T10:25:51.403Z,35.19
2016-08-31T10:26:51.390Z,34.51
2016-08-31T10:27:51.377Z,35.09
2016-08-31T10:28:51.362Z,34.72
2016-08-31T10:29:51.349Z,34.91
2016-08-31T10:30:51.345Z,34.72
2016-08-31T10:31:51.320Z,34.43
2016-08-31T10:32:51.307Z,34.14
2016-08-31T10:33:51.293Z,34.43
2016-08-31T10:34:51.280Z,34.06
2016-08-31T10:35:51.271Z,34.53
2016-08-31T10:36:51.251Z,33.84
2016-08-31T10:37:51.236Z,33.84
2016-08-31T10:38:51.229Z,34.16
2016-08-31T10:39:51.209Z,34.44
2016-08-31T10:40:51.196Z,34.16
2016-08-31T10:41:51.185Z,34.06
2016-08-31T10:42:51.191Z,33.86
2016-08-31T10:43:51.157Z,34.06
2016-08-31T10:44:52.125Z,33.86
2016-08-31T10:45:51.125Z,34.16
2016-08-31T10:46:51.114Z,33.86
2016-08-31T10:47:51.098Z,33.67
2016-08-31T10:48:51.084Z,33.67
2016-08-31T10:49:51.091Z,33.86
2016-08-31T10:50:51.058Z,33.76
2016-08-31T10:51:51.969Z,33.47
2016-08-31T10:52:51.032Z,33.76
2016-08-31T10:53:51.018Z,33.67
2016-08-31T10:54:51.005Z,33.76
2016-08-31T10:55:50.989Z,33.57
2016-08-31T10:56:50.978Z,33.47
2016-08-31T10:57:50.963Z,33.38
2016-08-31T10:58:50.949Z,33.09
2016-08-31T10:59:50.936Z,33.47
2016-08-31T11:00:50.928Z,33.11
2016-08-31T11:01:50.911Z,33.18
2016-08-31T11:02:50.906Z,33.01
2016-08-31T11:03:50.881Z,33.01
2016-08-31T11:04:50.867Z,32.81
2016-08-31T11:05:50.859Z,32.91
2016-08-31T11:06:50.840Z,32.91
2016-08-31T11:07:50.826Z,32.71
2016-08-31T11:08:50.814Z,32.71
2016-08-31T11:09:50.802Z,32.71
2016-08-31T11:10:50.784Z,32.71
2016-08-31T11:11:50.773Z,32.62
2016-08-31T11:12:50.758Z,32.6
2016-08-31T11:13:50.745Z,32.71
2016-08-31T11:14:50.732Z,32.71
2016-08-31T11:15:50.725Z,32.52
2016-08-31T11:16:50.705Z,32.5
2016-08-31T11:17:50.691Z,32.62
2016-08-31T11:18:50.676Z,32.62
2016-08-31T11:19:50.664Z,32.52
2016-08-31T11:20:50.651Z,32.52
2016-08-31T11:21:50.637Z,32.42
2016-08-31T11:22:50.625Z,32.52
2016-08-31T11:23:50.610Z,32.42
2016-08-31T11:24:50.597Z,32.42
2016-08-31T11:25:50.582Z,32.42
2016-08-31T11:26:50.571Z,32.42
2016-08-31T11:27:50.556Z,32.32
2016-08-31T11:28:50.541Z,32.32
2016-08-31T11:29:50.532Z,32.13
2016-08-31T11:30:51.227Z,32.13
2016-08-31T11:31:50.517Z,32.04
2016-08-31T11:32:50.490Z,31.94
2016-08-31T11:33:50.476Z,32.04
2016-08-31T11:34:50.461Z,32.04
2016-08-31T11:35:50.451Z,31.84
2016-08-31T11:36:50.441Z,31.84
2016-08-31T11:37:50.423Z,31.55
2016-08-31T11:38:50.408Z,31.45
2016-08-31T11:39:50.398Z,31.66
2016-08-31T11:40:50.382Z,31.37
2016-08-31T11:41:50.370Z,31.57
2016-08-31T11:42:50.356Z,31.74
2016-08-31T11:43:50.343Z,31.65
2016-08-31T11:44:50.329Z,31.74
2016-08-31T11:45:50.316Z,31.85
2016-08-31T11:46:50.303Z,31.66
2016-08-31T11:47:50.289Z,31.57
2016-08-31T11:48:50.275Z,31.66
2016-08-31T11:49:50.263Z,31.66
2016-08-31T11:50:50.248Z,31.47
2016-08-31T11:51:50.235Z,31.18
2016-08-31T11:52:50.223Z,31.27
2016-08-31T11:53:50.210Z,31.08
2016-08-31T11:54:50.201Z,31
2016-08-31T11:55:50.185Z,30.8
2016-08-31T11:56:50.171Z,31
2016-08-31T11:57:50.154Z,30.71
2016-08-31T11:58:50.145Z,31
2016-08-31T11:59:50.132Z,31.01
2016-08-31T12:00:50.117Z,31.1
2016-08-31T12:01:50.105Z,31
2016-08-31T12:02:50.093Z,30.61
2016-08-31T12:03:50.080Z,30.82
2016-08-31T12:04:50.065Z,30.61
2016-08-31T12:05:50.055Z,30.8
2016-08-31T12:06:50.039Z,30.33
2016-08-31T12:07:50.025Z,30.22
2016-08-31T12:08:50.015Z,30.32
2016-08-31T12:09:50.002Z,30.41
2016-08-31T12:10:49.989Z,30.22
2016-08-31T12:11:49.977Z,30.12
2016-08-31T12:12:49.964Z,30.04
2016-08-31T12:13:49.950Z,30.04
2016-08-31T12:14:49.938Z,29.75
2016-08-31T12:15:49.925Z,29.85
2016-08-31T12:16:49.912Z,29.85
2016-08-31T12:17:49.899Z,30.04
2016-08-31T12:18:49.887Z,29.55
2016-08-31T12:19:49.878Z,29.66
2016-08-31T12:20:49.861Z,29.66
2016-08-31T12:21:49.848Z,29.66
2016-08-31T12:22:49.835Z,29.66
2016-08-31T12:23:49.821Z,29.76
2016-08-31T12:24:49.810Z,29.57
2016-08-31T12:25:49.798Z,29.57
2016-08-31T12:26:49.786Z,29.57
2016-08-31T12:27:49.774Z,29.57
2016-08-31T12:28:49.761Z,29.57
2016-08-31T12:29:49.747Z,29.57
2016-08-31T12:30:49.734Z,29.66
2016-08-31T12:31:49.724Z,29.28
2016-08-31T12:32:49.709Z,29.57
2016-08-31T12:33:49.695Z,29.38
2016-08-31T12:34:49.693Z,29.08
2016-08-31T12:35:49.673Z,29
2016-08-31T12:36:49.659Z,28.7
2016-08-31T12:37:49.648Z,28.8
2016-08-31T12:38:50.328Z,28.8
2016-08-31T12:39:49.624Z,28.9
2016-08-31T12:40:49.611Z,28.7
2016-08-31T12:41:49.598Z,28.8
2016-08-31T12:42:49.586Z,28.7
2016-08-31T12:43:49.573Z,28.7
2016-08-31T12:44:49.562Z,28.61
2016-08-31T12:45:49.560Z,28.7
2016-08-31T12:46:49.579Z,28.61
2016-08-31T12:47:49.524Z,28.61
2016-08-31T12:48:49.513Z,28.61
2016-08-31T12:49:49.499Z,28.7
2016-08-31T12:50:49.489Z,28.69
2016-08-31T12:51:49.494Z,28.89
2016-08-31T12:52:49.462Z,28.8
2016-08-31T12:53:49.450Z,28.9
2016-08-31T12:55:40.761Z,28.7
2016-08-31T12:56:21.974Z,28.7
2016-08-31T12:57:21.306Z,28.7